Valdosta Regional Airport
KVLD : now visible

Airfield :











YOU CAN JOIN US ON...

 
LOGIN :

Register | Disclaimer

   EN    FR    IT 

 









Legend :    VFR   Marginal VFR   IFR   Intensive IFR   Very Intensive IFR
Visi :
Ceiling :
>= 8 km
>= 3000ft
5 to 8 km
1000 to 3000 ft
1500m to 5 km
500 to 1000 ft
800 to 1500m
200 to 500 ft
< 800m
< 200 ft
Symbols :   Thunderstorms  Fog  Heavy snow  Heavy precipitations  Wind > 20 kt






- Airport Elevation : 203 ft
- IATA code : VLD


KVLD - Valdosta Regional

CURRENT METAR :
  • 281453Z 20006KT 10SM FEW005 BKN017 OVC090 21/19 A3004 RMK AO2 RAE46 SLP179 P0007 60009 T02060194 51005

EXPIRED METARs :
  • 281440Z 00000KT 2SM -RA BR FEW007 BKN018 OVC033 21/19 A3005 RMK AO2 P0007 T02060189
  • 281425Z 22003KT 1 3/4SM RA BR FEW006 BKN019 OVC024 20/18 A3004 RMK AO2 VIS 3/4V5 P0004 T02000183
  • 281353Z 00000KT 10SM -RA SCT023 BKN030 OVC037 20/18 A3003 RMK AO2 RAB1257E37B46 SLP176 P0002 T02000183
  • 281346Z VRB03KT 10SM -RA SCT023 BKN030 OVC037 20/19 A3003 RMK AO2 RAB1257E37B46 P0002 T02000189
  • 281337Z VRB03KT 10SM BKN023 OVC033 20/18 A3003 RMK AO2 RAB1257E37 P0002 T02000183
  • 281253Z 00000KT 10SM FEW031 BKN040 OVC047 20/18 A3003 RMK AO2 RAE05B38E49 SLP174 P0000 T02000183
  • 281153Z AUTO 00000KT 10SM -RA BKN049 BKN100 OVC120 19/18 A3002 RMK AO2 SLP171 P0022 60046 70046 T01940183 10200 20189 53006

TAF KVLD
Valid from the 28 at 12:00 until the 29 at 12:00 UTC


281124Z 2812/2912 00000KT 4SM -SHRA BR BKN015
TEMPO 2812/2814 BKN008
FM281600 VRB04KT P6SM BKN015
FM290300 VRB02KT 5SM BR OVC007
KZJX FIR / North America



MET'MAP, your aeronautical weather chart ! - Copyright ORBIFLY December 2007 - Disclaimer

ORBIFLY MET'MAP TEAM :

Programming & Development : Alexandra Zaïnal
Concept & original design : Baudouin d'Aumeries
Assistance for programming : Marc-Olivier Méhu
Technical & hardware support : Manuel Goepfert

Contact : metmap@orbifly.com




SOURCES & CREDITS :

   NOAA       Earth
Advisory